createdAt,value
2017-11-01T00:01:02.326Z,101581.30
2017-11-01T00:03:29.851Z,101580.59
2017-11-01T00:05:57.444Z,101578.73
2017-11-01T00:08:24.973Z,101575.95
2017-11-01T00:10:52.600Z,101578.34
2017-11-01T00:13:20.131Z,101575.31
2017-11-01T00:15:47.662Z,101582.22
2017-11-01T00:18:15.285Z,101578.34
2017-11-01T00:20:42.841Z,101574.41
2017-11-01T00:23:10.373Z,101571.61
2017-11-01T00:25:37.907Z,101567.42
2017-11-01T00:28:05.908Z,101563.92
2017-11-01T00:30:33.498Z,101564.38
2017-11-01T00:33:01.171Z,101563.72
2017-11-01T00:35:28.705Z,101568.13
2017-11-01T00:37:56.249Z,101555.54
2017-11-01T00:40:23.788Z,101559.91
2017-11-01T00:42:51.524Z,101558.34
2017-11-01T00:45:19.073Z,101556.21
2017-11-01T00:47:46.604Z,101555.54
2017-11-01T00:50:14.137Z,101554.94
2017-11-01T00:52:41.683Z,101549.59
2017-11-01T00:55:09.225Z,101540.61
2017-11-01T00:57:36.761Z,101539.30
2017-11-01T01:00:04.307Z,101533.99
2017-11-01T01:02:31.840Z,101534.95
2017-11-01T01:04:59.436Z,101537.66
2017-11-01T01:07:27.212Z,101533.05
2017-11-01T01:09:54.772Z,101526.88
2017-11-01T01:12:22.309Z,101528.27
2017-11-01T01:14:49.892Z,101525.47
2017-11-01T01:17:17.452Z,101512.67
2017-11-01T01:19:45.017Z,101520.91
2017-11-01T01:22:12.572Z,101515.97
2017-11-01T01:24:40.108Z,101517.63
2017-11-01T01:27:07.697Z,101510.59
2017-11-01T01:29:35.252Z,101512.41
2017-11-01T01:32:02.817Z,101514.81
2017-11-01T01:34:30.352Z,101508.55
2017-11-01T01:36:57.888Z,101507.84
2017-11-01T01:39:25.501Z,101506.02
2017-11-01T01:41:53.032Z,101503.80
2017-11-01T01:44:20.560Z,101503.55
2017-11-01T01:46:48.728Z,101506.55
2017-11-01T01:49:16.296Z,101500.59
2017-11-01T01:51:43.840Z,101501.25
2017-11-01T01:54:11.376Z,101494.66
2017-11-01T01:56:38.940Z,101494.30
2017-11-01T01:59:06.500Z,101494.27
2017-11-01T02:01:34.979Z,101488.14
2017-11-01T02:04:02.528Z,101489.41
2017-11-01T02:06:30.058Z,101492.97
2017-11-01T02:08:57.603Z,101488.68
2017-11-01T02:11:25.216Z,101491.66
2017-11-01T02:13:52.876Z,101487.33
2017-11-01T02:16:21.206Z,101477.47
2017-11-01T02:18:48.741Z,101481.31
2017-11-01T02:21:16.272Z,101481.08
2017-11-01T02:23:44.553Z,101481.44
2017-11-01T02:26:12.114Z,101477.23
2017-11-01T02:28:39.677Z,101471.66
2017-11-01T02:31:08.049Z,101470.90
2017-11-01T02:33:35.628Z,101474.03
2017-11-01T02:36:03.165Z,101468.42
2017-11-01T02:38:31.608Z,101468.45
2017-11-01T02:40:59.219Z,101462.16
2017-11-01T02:43:27.549Z,101461.38
2017-11-01T02:45:55.082Z,101460.52
2017-11-01T02:48:22.616Z,101457.65
2017-11-01T02:50:50.944Z,101452.23
2017-11-01T02:53:18.481Z,101452.69
2017-11-01T02:55:46.372Z,101450.17
2017-11-01T02:58:14.837Z,101448.58
2017-11-01T03:00:43.189Z,101448.31
2017-11-01T03:03:10.756Z,101448.31
2017-11-01T03:05:39.080Z,101448.61
2017-11-01T03:08:06.654Z,101434.31
2017-11-01T03:10:35.160Z,101444.89
2017-11-01T03:13:02.701Z,101443.48
2017-11-01T03:15:30.228Z,101437.28
2017-11-01T03:17:57.844Z,101440.48
2017-11-01T03:20:25.376Z,101443.55
2017-11-01T03:22:52.905Z,101444.08
2017-11-01T03:25:21.443Z,101442.50
2017-11-01T03:27:48.972Z,101436.99
2017-11-01T03:30:16.501Z,101445.70
2017-11-01T03:32:44.512Z,101432.23
2017-11-01T03:35:12.085Z,101434.92
2017-11-01T03:37:39.607Z,101431.17
2017-11-01T03:40:07.144Z,101435.65
2017-11-01T03:42:34.703Z,101434.89
2017-11-01T03:45:02.344Z,101432.66
2017-11-01T03:47:29.914Z,101432.08
2017-11-01T03:49:57.457Z,101431.16
2017-11-01T03:52:25.841Z,101426.95
2017-11-01T03:54:53.381Z,101424.45
2017-11-01T03:57:20.949Z,101421.94
2017-11-01T03:59:48.588Z,101423.12
2017-11-01T04:02:16.126Z,101429.13
2017-11-01T04:04:43.740Z,101427.78
2017-11-01T04:07:11.279Z,101422.91
2017-11-01T04:09:39.709Z,101423.44
2017-11-01T04:12:07.353Z,101419.19
2017-11-01T04:14:34.888Z,101417.70
2017-11-01T04:17:02.422Z,101416.87
2017-11-01T04:19:30.033Z,101415.03
2017-11-01T04:21:57.597Z,101420.96
2017-11-01T04:24:25.132Z,101411.95
2017-11-01T04:26:53.391Z,101409.31
2017-11-01T04:29:21.656Z,101413.01
2017-11-01T04:31:49.183Z,101410.13
2017-11-01T04:34:16.715Z,101408.83
2017-11-01T04:36:44.281Z,101405.95
2017-11-01T04:39:11.848Z,101403.48
2017-11-01T04:41:40.008Z,101401.89
2017-11-01T04:44:07.548Z,101390.91
2017-11-01T04:46:35.084Z,101403.53
2017-11-01T04:49:04.644Z,101399.28
2017-11-01T04:51:32.191Z,101398.52
2017-11-01T04:54:02.545Z,101397.47
2017-11-01T04:56:30.080Z,101388.61
2017-11-01T04:58:57.623Z,101394.08
2017-11-01T05:01:25.217Z,101394.53
2017-11-01T05:03:52.790Z,101391.19
2017-11-01T05:06:20.336Z,101393.20
2017-11-01T05:08:50.146Z,101384.05
2017-11-01T05:11:18.518Z,101388.78
2017-11-01T05:13:53.349Z,101385.20
2017-11-01T05:16:21.702Z,101384.82
2017-11-01T05:18:50.272Z,101381.76
2017-11-01T05:21:17.817Z,101376.61
2017-11-01T05:23:47.173Z,101377.56
2017-11-01T05:26:14.709Z,101382.64
2017-11-01T05:28:43.024Z,101384.75
2017-11-01T05:31:10.682Z,101384.94
2017-11-01T05:33:38.207Z,101379.89
2017-11-01T05:36:05.741Z,101383.93
2017-11-01T05:38:33.360Z,101385.75
2017-11-01T05:41:00.901Z,101381.21
2017-11-01T05:43:28.490Z,101373.73
2017-11-01T05:45:56.048Z,101374.66
2017-11-01T05:48:23.614Z,101371.88
2017-11-01T05:50:51.179Z,101368.73
2017-11-01T05:53:22.073Z,101369.09
2017-11-01T05:55:49.601Z,101361.01
2017-11-01T05:58:21.536Z,101363.91
2017-11-01T06:00:49.294Z,101358.92
2017-11-01T06:03:20.045Z,101355.84
2017-11-01T06:05:47.577Z,101356.64
2017-11-01T06:08:16.209Z,101346.41
2017-11-01T06:10:43.739Z,101341.41
2017-11-01T06:13:11.304Z,101340.09
2017-11-01T06:15:38.829Z,101348.70
2017-11-01T06:18:06.412Z,101346.12
2017-11-01T06:20:33.953Z,101346.88
2017-11-01T06:23:02.293Z,101344.84
2017-11-01T06:25:30.701Z,101352.91
2017-11-01T06:27:58.289Z,101351.11
2017-11-01T06:30:26.578Z,101348.96
2017-11-01T06:32:54.136Z,101349.34
2017-11-01T06:35:22.616Z,101353.78
2017-11-01T06:37:50.148Z,101352.91
2017-11-01T06:40:19.918Z,101352.88
2017-11-01T06:42:48.260Z,101355.65
2017-11-01T06:45:15.793Z,101357.48
2017-11-01T06:47:44.200Z,101356.11
2017-11-01T06:50:11.768Z,101363.25
2017-11-01T06:52:40.228Z,101362.23
2017-11-01T06:55:08.734Z,101361.75
2017-11-01T06:57:36.266Z,101363.58
2017-11-01T07:00:11.292Z,101361.81
2017-11-01T07:02:43.769Z,101357.50
2017-11-01T07:05:14.141Z,101366.22
2017-11-01T07:07:42.611Z,101369.61
2017-11-01T07:10:10.928Z,101370.36
2017-11-01T07:12:39.464Z,101370.72
2017-11-01T07:15:06.992Z,101372.74
2017-11-01T07:17:34.524Z,101374.53
2017-11-01T07:20:03.073Z,101375.34
2017-11-01T07:22:31.452Z,101382.27
2017-11-01T07:24:59.780Z,101379.33
2017-11-01T07:27:27.313Z,101383.34
2017-11-01T07:29:54.885Z,101382.82
2017-11-01T07:32:23.224Z,101381.45
2017-11-01T07:34:51.653Z,101384.94
2017-11-01T07:37:19.203Z,101377.83
2017-11-01T07:39:47.668Z,101381.78
2017-11-01T07:42:15.220Z,101377.47
2017-11-01T07:44:43.604Z,101376.45
2017-11-01T07:47:11.161Z,101378.94
2017-11-01T07:49:38.703Z,101375.80
2017-11-01T07:52:06.236Z,101381.75
2017-11-01T07:54:33.827Z,101387.45
2017-11-01T07:57:02.201Z,101386.11
2017-11-01T07:59:29.733Z,101380.89
2017-11-01T08:01:57.265Z,101375.38
2017-11-01T08:04:24.857Z,101381.25
2017-11-01T08:06:52.388Z,101373.52
2017-11-01T08:09:19.931Z,101369.77
2017-11-01T08:11:48.388Z,101375.12
2017-11-01T08:14:15.971Z,101368.33
2017-11-01T08:16:44.404Z,101371.17
2017-11-01T08:19:11.930Z,101369.37
2017-11-01T08:21:39.465Z,101366.23
2017-11-01T08:24:07.024Z,101371.74
2017-11-01T08:26:34.577Z,101366.95
2017-11-01T08:29:03.046Z,101367.58
2017-11-01T08:31:31.573Z,101362.45
2017-11-01T08:33:59.209Z,101365.81
2017-11-01T08:36:27.443Z,101362.55
2017-11-01T08:38:54.974Z,101366.73
2017-11-01T08:41:23.439Z,101367.17
2017-11-01T08:43:51.034Z,101359.28
2017-11-01T08:46:19.672Z,101361.81
2017-11-01T08:48:47.201Z,101373.27
2017-11-01T08:51:14.784Z,101373.73
2017-11-01T08:53:43.261Z,101381.28
2017-11-01T08:56:14.654Z,101373.95
2017-11-01T08:58:42.317Z,101370.84
2017-11-01T09:01:09.841Z,101378.24
2017-11-01T09:03:38.308Z,101372.03
2017-11-01T09:06:05.842Z,101372.34
2017-11-01T09:08:33.451Z,101374.54
2017-11-01T09:11:01.830Z,101380.25
2017-11-01T09:13:30.188Z,101379.53
2017-11-01T09:15:58.516Z,101374.27
2017-11-01T09:18:26.088Z,101371.88
2017-11-01T09:20:53.944Z,101368.98
2017-11-01T09:23:22.373Z,101367.55
2017-11-01T09:25:49.901Z,101363.88
2017-11-01T09:28:18.436Z,101364.44
2017-11-01T09:30:46.769Z,101362.94
2017-11-01T09:33:14.300Z,101360.28
2017-11-01T09:35:41.861Z,101362.08
2017-11-01T09:38:10.173Z,101365.68
2017-11-01T09:40:38.593Z,101364.84
2017-11-01T09:43:06.161Z,101361.24
2017-11-01T09:45:34.644Z,101362.90
2017-11-01T09:48:02.179Z,101358.77
2017-11-01T09:50:30.652Z,101363.59
2017-11-01T09:52:58.194Z,101359.27
2017-11-01T09:55:26.728Z,101365.44
2017-11-01T09:57:55.158Z,101356.50
2017-11-01T10:00:23.331Z,101352.16
2017-11-01T10:02:51.348Z,101353.74
2017-11-01T10:05:18.884Z,101357.98
2017-11-01T10:07:47.390Z,101361.20
2017-11-01T10:10:15.772Z,101352.06
2017-11-01T10:12:44.099Z,101352.66
2017-11-01T10:15:11.712Z,101350.75
2017-11-01T10:17:40.298Z,101348.23
2017-11-01T10:20:07.870Z,101353.96
2017-11-01T10:22:36.222Z,101343.61
2017-11-01T10:25:04.720Z,101339.73
2017-11-01T10:27:32.295Z,101340.00
2017-11-01T10:29:59.826Z,101343.42
2017-11-01T10:32:28.173Z,101343.34
2017-11-01T10:34:56.504Z,101330.20
2017-11-01T10:37:24.980Z,101336.98
2017-11-01T10:39:52.552Z,101334.09
2017-11-01T10:42:21.029Z,101329.06
2017-11-01T10:44:48.561Z,101328.17
2017-11-01T10:47:16.864Z,101326.84
2017-11-01T10:49:45.184Z,101323.50
2017-11-01T10:52:12.730Z,101325.69
2017-11-01T10:54:40.363Z,101323.37
2017-11-01T10:57:07.903Z,101324.17
2017-11-01T10:59:35.481Z,101323.27
2017-11-01T11:02:03.026Z,101326.53
2017-11-01T11:04:30.562Z,101324.63
2017-11-01T11:06:58.162Z,101317.41
2017-11-01T11:09:25.725Z,101325.89
2017-11-01T11:11:53.284Z,101321.05
2017-11-01T11:14:20.827Z,101313.12
2017-11-01T11:16:48.395Z,101302.95
2017-11-01T11:19:15.963Z,101307.16
2017-11-01T11:21:43.515Z,101307.23
2017-11-01T11:24:11.053Z,101304.66
2017-11-01T11:26:38.645Z,101302.41
2017-11-01T11:29:06.216Z,101298.42
2017-11-01T11:31:34.729Z,101302.27
2017-11-01T11:34:02.353Z,101303.25
2017-11-01T11:36:30.689Z,101294.31
2017-11-01T11:38:58.225Z,101302.30
2017-11-01T11:41:25.773Z,101300.88
2017-11-01T11:43:53.308Z,101300.41
2017-11-01T11:46:21.628Z,101290.33
2017-11-01T11:48:49.180Z,101297.34
2017-11-01T11:51:16.780Z,101298.03
2017-11-01T11:53:44.329Z,101300.91
2017-11-01T11:56:11.878Z,101295.64
2017-11-01T11:58:39.495Z,101297.34
2017-11-01T12:01:07.026Z,101289.55
2017-11-01T12:03:35.446Z,101290.67
2017-11-01T12:06:03.094Z,101280.70
2017-11-01T12:08:30.759Z,101282.16
2017-11-01T12:10:58.424Z,101282.73
2017-11-01T12:13:26.880Z,101270.57
2017-11-01T12:15:54.764Z,101271.11
2017-11-01T12:18:23.212Z,101273.68
2017-11-01T12:20:50.785Z,101267.14
2017-11-01T12:23:19.091Z,101273.38
2017-11-01T12:25:46.943Z,101273.41
2017-11-01T12:28:14.480Z,101267.63
2017-11-01T12:30:42.021Z,101266.20
2017-11-01T12:33:09.573Z,101269.91
2017-11-01T12:35:37.885Z,101273.09
2017-11-01T12:38:05.477Z,101267.55
2017-11-01T12:40:33.865Z,101279.26
2017-11-01T12:43:02.237Z,101273.75
2017-11-01T12:45:30.783Z,101279.72
2017-11-01T12:47:59.172Z,101267.63
2017-11-01T12:50:27.580Z,101262.78
2017-11-01T12:52:55.963Z,101273.53
2017-11-01T12:55:24.899Z,101263.38
2017-11-01T12:57:54.238Z,101267.39
2017-11-01T13:00:22.532Z,101261.58
2017-11-01T13:02:50.098Z,101257.77
2017-11-01T13:05:18.417Z,101258.08
2017-11-01T13:07:46.769Z,101263.20
2017-11-01T13:10:15.115Z,101260.95
2017-11-01T13:12:43.608Z,101252.73
2017-11-01T13:15:11.995Z,101246.77
2017-11-01T13:17:40.307Z,101244.23
2017-11-01T13:20:07.932Z,101246.98
2017-11-01T13:22:36.283Z,101242.72
2017-11-01T13:25:03.822Z,101252.95
2017-11-01T13:27:32.239Z,101246.56
2017-11-01T13:29:59.904Z,101244.97
2017-11-01T13:32:28.398Z,101244.75
2017-11-01T13:34:56.042Z,101247.05
2017-11-01T13:37:23.841Z,101246.87
2017-11-01T13:39:51.374Z,101254.10
2017-11-01T13:42:19.855Z,101251.41
2017-11-01T13:44:47.398Z,101241.13
2017-11-01T13:47:15.806Z,101240.03
2017-11-01T13:49:43.359Z,101246.25
2017-11-01T13:52:11.833Z,101247.05
2017-11-01T13:54:39.401Z,101251.89
2017-11-01T13:57:06.942Z,101251.67
2017-11-01T13:59:35.421Z,101240.30
2017-11-01T14:02:02.962Z,101237.83
2017-11-01T14:04:30.681Z,101239.39
2017-11-01T14:06:58.224Z,101236.81
2017-11-01T14:09:26.456Z,101232.91
2017-11-01T14:11:54.287Z,101239.17
2017-11-01T14:14:21.837Z,101237.19
2017-11-01T14:16:49.381Z,101233.73
2017-11-01T14:19:16.927Z,101226.94
2017-11-01T14:21:44.461Z,101227.03
2017-11-01T14:24:12.072Z,101224.48
2017-11-01T14:26:39.609Z,101219.35
2017-11-01T14:29:07.204Z,101222.07
2017-11-01T14:31:34.864Z,101219.05
2017-11-01T14:34:02.436Z,101214.16
2017-11-01T14:36:29.969Z,101220.20
2017-11-01T14:38:57.509Z,101223.00
2017-11-01T14:41:25.376Z,101217.16
2017-11-01T14:43:52.924Z,101222.11
2017-11-01T14:46:21.240Z,101229.02
2017-11-01T14:48:48.775Z,101228.06
2017-11-01T14:51:16.372Z,101226.55
2017-11-01T14:53:43.928Z,101225.22
2017-11-01T14:56:11.468Z,101229.67
2017-11-01T14:58:39.049Z,101225.92
2017-11-01T15:03:40.340Z,101227.09
2017-11-01T15:06:07.980Z,101233.25
2017-11-01T15:08:35.546Z,101238.67
2017-11-01T15:11:03.105Z,101231.13
2017-11-01T15:13:30.643Z,101236.27
2017-11-01T15:15:58.185Z,101238.48
2017-11-01T15:18:25.727Z,101236.99
2017-11-01T15:20:53.273Z,101237.78
2017-11-01T15:23:20.820Z,101233.27
2017-11-01T15:25:48.466Z,101235.93
2017-11-01T15:28:16.000Z,101235.77
2017-11-01T15:30:43.541Z,101238.89
2017-11-01T15:33:11.077Z,101242.39
2017-11-01T15:35:38.613Z,101237.31
2017-11-01T15:38:06.147Z,101244.38
2017-11-01T15:40:33.687Z,101249.30
2017-11-01T15:43:01.228Z,101253.88
2017-11-01T15:45:28.828Z,101259.20
2017-11-01T15:47:56.980Z,101264.23
2017-11-01T15:50:24.789Z,101248.15
2017-11-01T15:52:52.328Z,101253.13
2017-11-01T15:55:19.869Z,101252.48
2017-11-01T15:57:48.192Z,101251.67
2017-11-01T16:00:16.622Z,101250.14
2017-11-01T16:02:44.161Z,101248.37
2017-11-01T16:05:11.711Z,101241.83
2017-11-01T16:07:39.249Z,101243.23
2017-11-01T16:10:07.601Z,101242.82
2017-11-01T16:12:36.074Z,101240.83
2017-11-01T16:15:04.412Z,101237.09
2017-11-01T16:17:31.953Z,101246.43
2017-11-01T16:20:00.412Z,101242.70
2017-11-01T16:22:27.956Z,101240.56
2017-11-01T16:24:56.906Z,101239.63
2017-11-01T16:27:25.275Z,101242.33
2017-11-01T16:29:52.813Z,101242.33
2017-11-01T16:32:20.377Z,101246.94
2017-11-01T16:34:48.863Z,101237.84
2017-11-01T16:37:17.300Z,101244.86
2017-11-01T16:39:44.901Z,101247.48
2017-11-01T16:42:13.131Z,101242.02
2017-11-01T16:44:40.662Z,101246.01
2017-11-01T16:47:08.196Z,101238.41
2017-11-01T16:49:35.733Z,101238.05
2017-11-01T16:52:03.327Z,101235.30
2017-11-01T16:54:30.868Z,101235.93
2017-11-01T16:56:58.445Z,101239.54
2017-11-01T16:59:26.750Z,101244.27
2017-11-01T17:01:54.289Z,101245.02
2017-11-01T17:04:21.865Z,101247.17
2017-11-01T17:06:49.496Z,101242.72
2017-11-01T17:09:17.029Z,101244.02
2017-11-01T17:11:44.622Z,101238.33
2017-11-01T17:14:12.163Z,101236.51
2017-11-01T17:16:39.745Z,101236.91
2017-11-01T17:19:08.000Z,101234.05
2017-11-01T17:21:35.540Z,101226.61
2017-11-01T17:24:03.145Z,101226.56
2017-11-01T17:26:30.703Z,101234.90
2017-11-01T17:28:58.279Z,101226.73
2017-11-01T17:31:26.866Z,101224.27
2017-11-01T17:33:54.406Z,101218.59
2017-11-01T17:36:21.961Z,101220.34
2017-11-01T17:38:49.491Z,101215.12
2017-11-01T17:41:17.071Z,101206.33
2017-11-01T17:43:44.609Z,101210.13
2017-11-01T17:46:12.188Z,101212.20
2017-11-01T17:48:39.744Z,101228.83
2017-11-01T17:51:07.330Z,101229.92
2017-11-01T17:53:34.873Z,101227.67
2017-11-01T17:56:02.561Z,101235.73
2017-11-01T17:58:30.117Z,101218.12
2017-11-01T18:00:57.661Z,101223.75
2017-11-01T18:03:25.233Z,101220.22
2017-11-01T18:05:53.690Z,101232.80
2017-11-01T18:08:21.236Z,101227.86
2017-11-01T18:10:48.830Z,101229.99
2017-11-01T18:13:16.377Z,101225.98
2017-11-01T18:15:43.917Z,101226.75
2017-11-01T18:18:11.482Z,101226.29
2017-11-01T18:20:39.746Z,101215.87
2017-11-01T18:23:07.357Z,101218.78
2017-11-01T18:25:34.920Z,101212.38
2017-11-01T18:28:02.492Z,101198.55
2017-11-01T18:30:30.037Z,101204.45
2017-11-01T18:32:58.517Z,101200.84
2017-11-01T18:35:27.918Z,101202.44
2017-11-01T18:37:57.338Z,101192.63
2017-11-01T18:40:24.986Z,101186.45
2017-11-01T18:42:52.530Z,101195.12
2017-11-01T18:45:20.068Z,101188.81
2017-11-01T18:47:48.517Z,101204.54
2017-11-01T18:50:16.056Z,101211.94
2017-11-01T18:52:43.615Z,101198.06
2017-11-01T18:55:11.185Z,101202.67
2017-11-01T18:57:39.581Z,101199.30
2017-11-01T19:00:08.032Z,101193.39
2017-11-01T19:02:36.409Z,101180.08
2017-11-01T19:05:03.957Z,101186.98
2017-11-01T19:07:31.503Z,101191.44
2017-11-01T19:09:59.050Z,101181.27
2017-11-01T19:12:27.376Z,101178.19
2017-11-01T19:14:54.929Z,101178.11
2017-11-01T19:17:23.301Z,101189.48
2017-11-01T19:19:51.641Z,101191.92
2017-11-01T19:22:20.130Z,101192.50
2017-11-01T19:24:47.671Z,101183.75
2017-11-01T19:27:15.216Z,101193.32
2017-11-01T19:29:43.438Z,101185.63
2017-11-01T19:32:12.466Z,101197.72
2017-11-01T19:34:40.952Z,101186.50
2017-11-01T19:37:09.262Z,101189.49
2017-11-01T19:39:37.584Z,101190.38
2017-11-01T19:42:05.136Z,101188.30
2017-11-01T19:44:32.680Z,101188.19
2017-11-01T19:47:01.001Z,101180.60
2017-11-01T19:49:29.379Z,101174.36
2017-11-01T19:51:58.291Z,101174.77
2017-11-01T19:54:25.929Z,101178.24
2017-11-01T19:56:53.477Z,101166.45
2017-11-01T19:59:21.162Z,101158.96
2017-11-01T20:01:49.486Z,101154.06
2017-11-01T20:04:17.942Z,101155.50
2017-11-01T20:06:46.302Z,101153.91
2017-11-01T20:09:13.864Z,101154.12
2017-11-01T20:11:42.315Z,101152.41
2017-11-01T20:14:09.869Z,101147.80
2017-11-01T20:16:38.286Z,101140.62
2017-11-01T20:19:05.838Z,101137.34
2017-11-01T20:21:34.318Z,101148.59
2017-11-01T20:24:01.865Z,101152.45
2017-11-01T20:26:29.412Z,101152.77
2017-11-01T20:28:58.038Z,101142.98
2017-11-01T20:31:25.660Z,101141.57
2017-11-01T20:33:53.210Z,101144.08
2017-11-01T20:36:21.694Z,101140.16
2017-11-01T20:38:50.068Z,101146.20
2017-11-01T20:41:17.674Z,101142.20
2017-11-01T20:43:45.448Z,101140.17
2017-11-01T20:46:14.027Z,101144.83
2017-11-01T20:48:41.837Z,101142.82
2017-11-01T20:51:09.389Z,101147.23
2017-11-01T20:53:37.776Z,101145.86
2017-11-01T20:56:05.381Z,101143.55
2017-11-01T20:58:36.135Z,101144.70
2017-11-01T21:01:03.678Z,101133.99
2017-11-01T21:03:33.161Z,101127.80
2017-11-01T21:06:00.699Z,101129.78
2017-11-01T21:08:29.654Z,101125.07
2017-11-01T21:10:58.365Z,101114.13
2017-11-01T21:13:25.973Z,101102.71
2017-11-01T21:15:53.516Z,101105.33
2017-11-01T21:18:21.049Z,101115.62
2017-11-01T21:20:48.585Z,101110.70
2017-11-01T21:23:16.230Z,101112.20
2017-11-01T21:25:43.777Z,101105.14
2017-11-01T21:28:11.359Z,101099.78
2017-11-01T21:30:38.905Z,101108.39
2017-11-01T21:33:06.446Z,101103.39
2017-11-01T21:35:34.960Z,101096.12
2017-11-01T21:38:02.518Z,101087.64
2017-11-01T21:40:30.096Z,101092.09
2017-11-01T21:42:59.574Z,101094.87
2017-11-01T21:45:27.364Z,101086.81
2017-11-01T21:47:55.129Z,101081.58
2017-11-01T21:50:22.702Z,101087.12
2017-11-01T21:52:51.096Z,101083.50
2017-11-01T21:55:18.646Z,101078.66
2017-11-01T21:57:46.435Z,101072.15
2017-11-01T22:00:14.007Z,101078.26
2017-11-01T22:02:41.539Z,101075.09
2017-11-01T22:05:09.790Z,101068.14
2017-11-01T22:07:38.229Z,101067.66
2017-11-01T22:10:06.642Z,101074.14
2017-11-01T22:12:34.179Z,101068.28
2017-11-01T22:15:01.708Z,101066.19
2017-11-01T22:17:29.249Z,101062.27
2017-11-01T22:19:57.633Z,101061.71
2017-11-01T22:22:25.990Z,101064.08
2017-11-01T22:24:53.528Z,101067.20
2017-11-01T22:27:21.106Z,101068.19
2017-11-01T22:29:48.676Z,101073.53
2017-11-01T22:32:17.009Z,101068.28
2017-11-01T22:34:44.549Z,101086.24
2017-11-01T22:37:12.087Z,101092.06
2017-11-01T22:39:39.632Z,101086.24
2017-11-01T22:42:07.954Z,101079.94
2017-11-01T22:44:36.328Z,101086.97
2017-11-01T22:47:03.870Z,101073.27
2017-11-01T22:49:32.418Z,101074.89
2017-11-01T22:52:00.673Z,101069.56
2017-11-01T22:54:29.692Z,101060.77
2017-11-01T22:56:58.074Z,101056.48
2017-11-01T22:59:29.784Z,101055.31
2017-11-01T23:01:58.200Z,101045.59
2017-11-01T23:04:26.684Z,101045.67
2017-11-01T23:06:55.172Z,101047.14
2017-11-01T23:09:22.737Z,101035.64
2017-11-01T23:11:51.212Z,101041.96
2017-11-01T23:14:19.552Z,101038.62
2017-11-01T23:16:47.976Z,101036.08
2017-11-01T23:19:16.429Z,101036.87
2017-11-01T23:21:44.929Z,101035.81
2017-11-01T23:24:13.308Z,101033.92
2017-11-01T23:26:40.879Z,101034.16
2017-11-01T23:29:08.416Z,101027.87
2017-11-01T23:31:36.920Z,101015.73
2017-11-01T23:34:05.252Z,101017.21
2017-11-01T23:36:32.793Z,101016.13
2017-11-01T23:39:01.231Z,101004.84
2017-11-01T23:41:29.652Z,101004.11
2017-11-01T23:43:57.189Z,101004.84
2017-11-01T23:46:25.561Z,101001.41
2017-11-01T23:48:54.060Z,101003.05
2017-11-01T23:51:22.509Z,100998.47
2017-11-01T23:53:50.912Z,100989.96
2017-11-01T23:56:19.340Z,100990.27
2017-11-01T23:58:47.705Z,100992.09
